Time,TemperatureF,DewpointF,PressureIn,WindDirection,WindDirectionDegrees,WindSpeedMPH,WindSpeedGustMPH,Humidity,HourlyPrecipIn,Conditions,Clouds,dailyrainin,SoftwareType,DateUTC
2013-11-21 00:22:00,44.0,37.0,30.19,SSE,168,0.0,0.0,75,0.00,,,0.00,,2013-11-21 05:22:00,
2013-11-21 00:42:00,44.0,37.0,30.18,SSE,168,0.0,0.0,75,0.00,,,0.00,,2013-11-21 05:42:00,
2013-11-21 00:52:00,44.0,37.0,30.18,SSE,168,0.0,0.0,75,0.00,,,0.00,,2013-11-21 05:52:00,
2013-11-21 01:12:00,44.0,36.0,30.19,SSE,163,0.0,0.0,73,0.00,,,0.00,,2013-11-21 06:12:00,
2013-11-21 01:22:00,44.0,36.0,30.19,SSE,163,0.0,0.0,73,0.00,,,0.00,,2013-11-21 06:22:00,
2013-11-21 01:43:00,45.0,37.0,30.19,SSE,163,0.0,0.0,72,0.00,,,0.00,,2013-11-21 06:43:00,
2013-11-21 01:52:00,45.0,36.0,30.19,SSE,163,0.0,0.0,71,0.00,,,0.00,,2013-11-21 06:52:00,
2013-11-21 02:11:00,45.0,36.0,30.19,SSE,163,0.0,0.0,71,0.00,,,0.00,,2013-11-21 07:11:00,
2013-11-21 02:22:00,45.0,36.0,30.19,SSE,163,0.0,0.0,71,0.00,,,0.00,,2013-11-21 07:22:00,
2013-11-21 02:52:00,46.0,37.0,30.21,SSE,163,0.0,0.0,72,0.00,,,0.00,,2013-11-21 07:52:00,
2013-11-21 03:12:00,46.0,38.0,30.22,SSE,163,0.0,0.0,73,0.00,,,0.00,,2013-11-21 08:12:00,
2013-11-21 03:21:00,46.0,37.0,30.22,SSE,163,0.0,0.0,72,0.00,,,0.00,,2013-11-21 08:21:00,
2013-11-21 03:42:00,46.0,37.0,30.21,SSE,163,0.0,0.0,71,0.00,,,0.00,,2013-11-21 08:42:00,
2013-11-21 03:52:00,46.0,37.0,30.21,SSE,163,0.0,0.0,71,0.00,,,0.00,,2013-11-21 08:52:00,
2013-11-21 04:22:00,45.0,39.0,30.22,SSE,163,0.0,0.0,78,0.00,,,0.00,,2013-11-21 09:22:00,
2013-11-21 04:43:00,45.0,37.0,30.20,SSE,163,0.0,0.0,74,0.00,,,0.00,,2013-11-21 09:43:00,
2013-11-21 04:53:00,45.0,39.0,30.19,SSE,163,0.0,0.0,79,0.00,,,0.00,,2013-11-21 09:53:00,
2013-11-21 05:03:00,45.0,39.0,30.19,SSE,163,0.0,0.0,79,0.00,,,0.00,,2013-11-21 10:03:00,
2013-11-21 05:13:00,45.0,39.0,30.19,SSE,163,0.0,0.0,79,0.00,,,0.00,,2013-11-21 10:13:00,
2013-11-21 05:23:00,45.0,39.0,30.19,SSE,163,0.0,0.0,79,0.00,,,0.00,,2013-11-21 10:23:00,
2013-11-21 05:53:00,46.0,37.0,30.20,SSE,156,0.0,0.0,72,0.00,,,0.00,,2013-11-21 10:53:00,
2013-11-21 06:12:00,46.0,38.0,30.21,SSE,156,0.0,0.0,73,0.00,,,0.00,,2013-11-21 11:12:00,
2013-11-21 06:22:00,46.0,38.0,30.21,SSE,156,0.0,0.0,73,0.00,,,0.00,,2013-11-21 11:22:00,
2013-11-21 06:33:00,46.0,38.0,30.21,SSE,156,0.0,0.0,73,0.00,,,0.00,,2013-11-21 11:33:00,
2013-11-21 06:43:00,46.0,38.0,30.21,SSE,156,0.0,0.0,73,0.00,,,0.00,,2013-11-21 11:43:00,
2013-11-21 06:52:00,46.0,38.0,30.21,SSE,160,0.0,0.0,73,0.00,,,0.00,,2013-11-21 11:52:00,
2013-11-21 07:12:00,47.0,39.0,30.21,South,173,0.0,0.0,73,0.00,,,0.00,,2013-11-21 12:12:00,
2013-11-21 07:22:00,46.0,38.0,30.22,South,170,0.0,0.0,73,0.00,,,0.00,,2013-11-21 12:22:00,
2013-11-21 07:52:00,47.0,39.0,30.22,SSE,163,0.0,0.0,74,0.00,,,0.00,,2013-11-21 12:52:00,
2013-11-21 08:11:00,47.0,39.0,30.22,SSE,163,0.0,0.0,74,0.00,,,0.00,,2013-11-21 13:11:00,
2013-11-21 08:21:00,47.0,39.0,30.22,SSE,163,0.0,0.0,74,0.00,,,0.00,,2013-11-21 13:21:00,
2013-11-21 08:42:00,47.0,40.0,30.24,SE,138,0.0,0.0,77,0.00,,,0.00,,2013-11-21 13:42:00,
2013-11-21 08:52:00,47.0,40.0,30.24,SE,138,0.0,0.0,77,0.00,,,0.00,,2013-11-21 13:52:00,
2013-11-21 09:11:00,48.0,41.0,30.26,SE,138,0.0,0.0,76,0.00,,,0.00,,2013-11-21 14:11:00,
2013-11-21 09:22:00,48.0,41.0,30.25,SE,138,0.0,0.0,78,0.00,,,0.00,,2013-11-21 14:22:00,
2013-11-21 09:32:00,48.0,41.0,30.25,SE,138,0.0,0.0,78,0.00,,,0.00,,2013-11-21 14:32:00,
2013-11-21 09:42:00,48.0,41.0,30.25,SE,138,0.0,0.0,78,0.00,,,0.00,,2013-11-21 14:42:00,
2013-11-21 09:52:00,48.0,41.0,30.25,SE,138,0.0,0.0,78,0.00,,,0.00,,2013-11-21 14:52:00,
2013-11-21 10:12:00,51.0,43.0,30.26,SE,138,0.0,0.0,73,0.00,,,0.00,,2013-11-21 15:12:00,
2013-11-21 10:22:00,51.0,43.0,30.26,SE,138,0.0,0.0,73,0.00,,,0.00,,2013-11-21 15:22:00,
2013-11-21 10:43:00,52.0,44.0,30.27,SSE,153,0.0,0.0,73,0.00,,,0.00,,2013-11-21 15:43:00,
2013-11-21 10:53:00,52.0,44.0,30.26,SE,133,0.0,0.0,74,0.00,,,0.00,,2013-11-21 15:53:00,
2013-11-21 11:13:00,53.0,45.0,30.26,South,171,0.0,0.0,73,0.00,,,0.00,,2013-11-21 16:13:00,
2013-11-21 11:23:00,53.0,45.0,30.26,South,171,0.0,0.0,73,0.00,,,0.00,,2013-11-21 16:23:00,
2013-11-21 11:33:00,53.0,45.0,30.26,South,171,0.0,0.0,73,0.00,,,0.00,,2013-11-21 16:33:00,
2013-11-21 11:53:00,55.0,46.0,30.24,SSE,161,0.0,0.0,72,0.00,,,0.00,,2013-11-21 16:53:00,
2013-11-21 12:22:00,57.0,48.0,30.23,South,186,0.0,0.0,71,0.00,,,0.00,,2013-11-21 17:22:00,
2013-11-21 12:42:00,58.0,48.0,30.21,SSE,164,0.0,0.0,70,0.00,,,0.00,,2013-11-21 17:42:00,
2013-11-21 12:52:00,58.0,48.0,30.21,SSE,164,0.0,0.0,70,0.00,,,0.00,,2013-11-21 17:52:00,
2013-11-21 13:02:00,58.0,48.0,30.21,SSE,164,0.0,0.0,70,0.00,,,0.00,,2013-11-21 18:02:00,
2013-11-21 13:22:00,59.0,49.0,30.19,SSE,153,0.0,0.0,69,0.00,,,0.00,,2013-11-21 18:22:00,
2013-11-21 13:52:00,59.0,49.0,30.18,South,185,0.0,0.0,70,0.00,,,0.00,,2013-11-21 18:52:00,
2013-11-21 14:22:00,58.0,48.0,30.17,SSE,150,0.0,0.0,70,0.00,,,0.00,,2013-11-21 19:22:00,
2013-11-21 14:42:00,58.0,48.0,30.17,South,179,0.0,0.0,70,0.00,,,0.00,,2013-11-21 19:42:00,
2013-11-21 14:52:00,58.0,48.0,30.17,South,179,0.0,0.0,70,0.00,,,0.00,,2013-11-21 19:52:00,
2013-11-21 15:22:00,57.0,48.0,30.16,SSE,162,0.0,0.0,72,0.00,,,0.00,,2013-11-21 20:22:00,
2013-11-21 15:42:00,58.0,49.0,30.18,SSW,194,0.0,0.0,71,0.00,,,0.00,,2013-11-21 20:42:00,
2013-11-21 15:52:00,58.0,49.0,30.18,SSW,194,0.0,0.0,71,0.00,,,0.00,,2013-11-21 20:52:00,
2013-11-21 16:11:00,58.0,49.0,30.18,South,187,0.0,0.0,71,0.00,,,0.00,,2013-11-21 21:11:00,
2013-11-21 16:22:00,58.0,49.0,30.18,South,187,0.0,0.0,71,0.00,,,0.00,,2013-11-21 21:22:00,
2013-11-21 16:43:00,58.0,49.0,30.18,South,185,0.0,0.0,72,0.00,,,0.00,,2013-11-21 21:43:00,
2013-11-21 16:54:00,58.0,49.0,30.18,South,186,0.0,0.0,72,0.00,,,0.00,,2013-11-21 21:54:00,
2013-11-21 17:13:00,57.0,49.0,30.19,South,185,0.0,0.0,74,0.00,,,0.00,,2013-11-21 22:13:00,
2013-11-21 17:23:00,57.0,49.0,30.19,South,185,0.0,0.0,74,0.00,,,0.00,,2013-11-21 22:23:00,
2013-11-21 17:43:00,56.0,49.0,30.19,South,185,0.0,0.0,77,0.00,,,0.00,,2013-11-21 22:43:00,
2013-11-21 17:53:00,56.0,49.0,30.19,South,185,0.0,0.0,77,0.00,,,0.00,,2013-11-21 22:53:00,
2013-11-21 18:22:00,54.0,50.0,30.19,South,185,0.0,0.0,87,0.02,,,0.02,,2013-11-21 23:22:00,
2013-11-21 18:53:00,53.0,50.0,30.20,South,185,0.0,0.0,89,0.04,,,0.04,,2013-11-21 23:53:00,
2013-11-21 19:11:00,52.0,49.0,30.19,South,185,0.0,0.0,91,0.04,,,0.04,,2013-11-22 00:11:00,
2013-11-21 19:22:00,52.0,49.0,30.19,South,185,0.0,0.0,91,0.04,,,0.04,,2013-11-22 00:22:00,
2013-11-21 19:42:00,52.0,50.0,30.19,South,185,0.0,0.0,93,0.02,,,0.04,,2013-11-22 00:42:00,
2013-11-21 19:52:00,52.0,50.0,30.19,South,185,0.0,0.0,93,0.02,,,0.04,,2013-11-22 00:52:00,
2013-11-21 20:12:00,51.0,49.0,30.19,South,185,0.0,0.0,93,0.03,,,0.05,,2013-11-22 01:12:00,
2013-11-21 20:22:00,51.0,49.0,30.19,South,186,0.0,0.0,94,0.03,,,0.05,,2013-11-22 01:22:00,
2013-11-21 20:52:00,51.0,49.0,30.19,South,185,0.0,0.0,94,0.01,,,0.05,,2013-11-22 01:52:00,
2013-11-21 21:11:00,51.0,49.0,30.19,South,185,0.0,0.0,94,0.01,,,0.05,,2013-11-22 02:11:00,
2013-11-21 21:21:00,51.0,49.0,30.19,South,185,0.0,0.0,94,0.01,,,0.05,,2013-11-22 02:21:00,
2013-11-21 21:42:00,51.0,50.0,30.19,South,186,0.0,0.0,95,0.00,,,0.05,,2013-11-22 02:42:00,
2013-11-21 21:53:00,51.0,50.0,30.19,South,186,0.0,0.0,95,0.00,,,0.05,,2013-11-22 02:53:00,
2013-11-21 22:11:00,51.0,50.0,30.18,South,186,0.0,0.0,95,0.00,,,0.05,,2013-11-22 03:11:00,
2013-11-21 22:22:00,51.0,50.0,30.17,South,185,0.0,0.0,95,0.00,,,0.05,,2013-11-22 03:22:00,
2013-11-21 22:43:00,51.0,50.0,30.18,West,280,0.0,0.0,95,0.00,,,0.05,,2013-11-22 03:43:00,
2013-11-21 22:54:00,51.0,50.0,30.18,West,280,0.0,0.0,95,0.00,,,0.05,,2013-11-22 03:54:00,
2013-11-21 23:13:00,51.0,50.0,30.18,West,280,0.0,0.0,96,0.00,,,0.05,,2013-11-22 04:13:00,
2013-11-21 23:23:00,51.0,50.0,30.18,West,280,0.0,0.0,96,0.00,,,0.05,,2013-11-22 04:23:00,
2013-11-21 23:43:00,51.0,50.0,30.18,West,280,0.0,0.0,96,0.00,,,0.05,,2013-11-22 04:43:00,
2013-11-21 23:53:00,51.0,50.0,30.17,West,280,0.0,0.0,96,0.00,,,0.05,,2013-11-22 04:53:00,